METAR EVRA 060050Z 21013KT 9999 SCT014 BKN028 05/02 Q1003 R18/190095 NOSIG =

Controllers Online

PositionControllerOnline
No controllers currently online

Booked ATC Today

Position Start End
EVRA_TWR 17:00 21:00
EVRA_M_TWR 17:00 21:00
EVRR_CTR 17:00 21:00
* Times are UTC

The time is now

UTC: 

Local: 

Latvia vACC on twitter